Time;durP1;ratioP1;P1;durP2;ratioP2;P2;SDS_P1;SDS_P2;PMS_P1;PMS_P2;Temp;Humidity;BMP_temperature;BMP_pressure;BME280_temperature;BME280_humidity;BME280_pressure;Samples;Min_cycle;Max_cycle;Signal;HPM_P1;HPM_P2
2021/09/07 00:01:09;;;;;;;0.90;0.40;;;16.70;99.90;;;;;;4932640;29;20416;-70
2021/09/07 00:03:38;;;;;;;0.90;0.40;;;16.70;99.90;;;;;;4916808;29;20415;-70
2021/09/07 00:06:07;;;;;;;0.90;0.40;;;16.70;99.90;;;;;;4933713;29;20454;-70
2021/09/07 00:08:35;;;;;;;0.90;0.40;;;16.70;99.90;;;;;;4917201;29;20429;-70
2021/09/07 00:11:04;;;;;;;0.90;0.40;;;16.70;99.90;;;;;;4933761;29;20419;-70
2021/09/07 00:13:32;;;;;;;1.33;1.23;;;16.70;99.90;;;;;;4933857;29;20756;-70
2021/09/07 00:16:02;;;;;;;0.90;0.40;;;16.70;99.90;;;;;;4933754;29;20400;-70
2021/09/07 00:18:31;;;;;;;0.90;0.50;;;16.70;99.90;;;;;;4916729;29;20492;-70
2021/09/07 00:20:59;;;;;;;0.90;0.40;;;16.70;99.90;;;;;;4916407;29;20434;-70
2021/09/07 00:23:28;;;;;;;0.90;0.40;;;16.60;99.90;;;;;;4933917;29;20444;-70
2021/09/07 00:25:57;;;;;;;0.90;0.40;;;16.60;99.90;;;;;;4916460;29;20514;-70
2021/09/07 00:28:25;;;;;;;0.90;0.40;;;16.70;99.90;;;;;;4916876;29;20447;-70
2021/09/07 00:30:53;;;;;;;0.90;0.40;;;16.70;99.90;;;;;;4933549;29;20502;-71
2021/09/07 00:33:23;;;;;;;0.90;0.40;;;16.70;99.90;;;;;;4933550;29;20419;-69
2021/09/07 00:35:52;;;;;;;0.90;0.40;;;16.60;99.90;;;;;;4933609;29;20825;-69
2021/09/07 00:38:20;;;;;;;0.90;0.40;;;16.50;99.90;;;;;;4933364;29;20533;-70
2021/09/07 00:40:48;;;;;;;0.87;0.40;;;16.50;99.90;;;;;;4933263;29;20435;-70
2021/09/07 00:43:17;;;;;;;0.90;0.40;;;16.50;99.90;;;;;;4916193;29;20435;-70
2021/09/07 00:45:46;;;;;;;0.90;0.40;;;16.50;99.90;;;;;;4916159;29;20419;-70
2021/09/07 00:48:14;;;;;;;0.90;0.40;;;16.50;99.90;;;;;;4933203;29;20435;-70
2021/09/07 00:50:44;;;;;;;0.90;0.40;;;16.50;99.90;;;;;;4916342;29;20439;-69
2021/09/07 00:53:15;;;;;;;0.90;0.40;;;16.50;99.90;;;;;;4916264;29;20548;-70
2021/09/07 00:55:46;;;;;;;0.90;0.40;;;16.50;99.90;;;;;;4916327;29;20524;-69
2021/09/07 00:58:17;;;;;;;0.90;0.40;;;16.50;99.90;;;;;;4916023;29;20418;-69
2021/09/07 01:00:46;;;;;;;0.90;0.40;;;16.50;99.90;;;;;;4915762;29;20427;-70
2021/09/07 01:03:15;;;;;;;0.90;0.40;;;16.50;99.90;;;;;;4933203;29;20430;-70
2021/09/07 01:05:47;;;;;;;0.83;0.40;;;16.40;99.90;;;;;;4916079;29;20431;-69
2021/09/07 01:08:18;;;;;;;0.90;0.40;;;16.30;99.90;;;;;;4916237;29;20534;-69
2021/09/07 01:10:48;;;;;;;0.90;0.40;;;16.30;99.90;;;;;;4916086;29;20440;-69
2021/09/07 01:13:18;;;;;;;0.83;0.40;;;16.20;99.90;;;;;;4932967;29;20963;-69
2021/09/07 01:15:48;;;;;;;0.90;0.40;;;16.10;99.90;;;;;;4916358;29;20543;-70
2021/09/07 01:18:17;;;;;;;0.90;0.40;;;16.10;99.90;;;;;;4916196;29;20947;-70
2021/09/07 01:20:48;;;;;;;0.90;0.40;;;16.00;99.90;;;;;;4933386;29;20814;-70
2021/09/07 01:23:16;;;;;;;0.90;0.40;;;16.00;99.90;;;;;;4932743;29;20514;-70
2021/09/07 01:25:46;;;;;;;0.90;0.40;;;15.90;99.90;;;;;;4915636;29;20699;-70
2021/09/07 01:28:16;;;;;;;0.90;0.50;;;15.90;99.90;;;;;;4932935;29;20820;-70
2021/09/07 01:30:44;;;;;;;0.90;0.40;;;15.90;99.90;;;;;;4915916;29;20490;-69
2021/09/07 01:33:13;;;;;;;0.90;0.40;;;15.80;99.90;;;;;;4915514;29;20660;-70
2021/09/07 01:35:42;;;;;;;0.80;0.40;;;15.80;99.90;;;;;;4915760;29;20427;-70
2021/09/07 01:38:10;;;;;;;0.80;0.40;;;15.70;99.90;;;;;;4918900;29;20809;-70
2021/09/07 01:40:39;;;;;;;0.90;0.50;;;15.60;99.90;;;;;;4936459;29;20846;-70
2021/09/07 01:43:14;;;;;;;0.80;0.40;;;15.60;99.90;;;;;;4919553;29;20524;-70
2021/09/07 01:45:44;;;;;;;2.50;0.90;;;15.60;99.90;;;;;;4936488;29;20901;-69
2021/09/07 01:48:13;;;;;;;0.90;0.40;;;15.50;99.90;;;;;;4919474;29;20818;-69
2021/09/07 01:50:41;;;;;;;0.83;0.40;;;15.50;99.90;;;;;;4936459;29;20424;-69
2021/09/07 01:53:10;;;;;;;0.80;0.40;;;15.40;99.90;;;;;;4936043;29;20825;-69
2021/09/07 01:55:39;;;;;;;0.80;0.40;;;15.40;99.90;;;;;;4919095;29;20652;-70
2021/09/07 01:58:10;;;;;;;0.87;0.40;;;15.30;99.90;;;;;;4936253;29;20406;-70
2021/09/07 02:00:38;;;;;;;0.80;0.40;;;15.30;99.90;;;;;;4919160;29;21033;-70
2021/09/07 02:03:09;;;;;;;1.00;0.80;;;15.20;99.90;;;;;;4919177;29;20806;-70
2021/09/07 02:05:40;;;;;;;0.90;0.40;;;15.20;99.90;;;;;;4918991;29;20510;-70
2021/09/07 02:08:12;;;;;;;0.80;0.40;;;15.20;99.90;;;;;;4918803;29;20472;-69
2021/09/07 02:10:41;;;;;;;0.80;0.40;;;15.10;99.90;;;;;;4918852;29;20459;-70
2021/09/07 02:13:11;;;;;;;0.80;0.40;;;15.10;99.90;;;;;;4918528;29;20473;-69
2021/09/07 02:15:41;;;;;;;0.80;0.40;;;15.10;99.90;;;;;;4935758;29;20466;-69
2021/09/07 02:18:09;;;;;;;0.80;0.40;;;15.10;99.90;;;;;;4935612;29;20435;-69
2021/09/07 02:20:38;;;;;;;0.80;0.40;;;15.00;99.90;;;;;;4935729;29;20388;-69
2021/09/07 02:23:08;;;;;;;0.80;0.40;;;14.90;99.90;;;;;;4935663;29;20441;-70
2021/09/07 02:25:38;;;;;;;0.80;0.40;;;14.90;99.90;;;;;;4918370;29;20806;-69
2021/09/07 02:28:08;;;;;;;0.80;0.40;;;14.90;99.90;;;;;;4918314;29;20505;-69
2021/09/07 02:30:38;;;;;;;0.80;0.40;;;14.80;99.90;;;;;;4919108;29;20924;-69
2021/09/07 02:33:09;;;;;;;0.80;0.40;;;14.80;99.90;;;;;;4918059;29;20881;-69
2021/09/07 02:35:38;;;;;;;0.80;0.40;;;14.70;99.90;;;;;;4918513;29;20448;-69
2021/09/07 02:38:07;;;;;;;0.80;0.40;;;14.60;99.90;;;;;;4935749;29;20496;-69
2021/09/07 02:40:36;;;;;;;0.80;0.40;;;14.60;99.90;;;;;;4918820;29;20436;-69
2021/09/07 02:43:05;;;;;;;0.80;0.40;;;14.50;99.90;;;;;;4935378;29;20491;-69
2021/09/07 02:45:33;;;;;;;0.80;0.40;;;14.50;99.90;;;;;;4935672;29;20437;-70
2021/09/07 02:48:04;;;;;;;0.80;0.40;;;14.50;99.90;;;;;;4934652;29;20795;-70
2021/09/07 02:50:33;;;;;;;0.80;0.50;;;14.40;99.90;;;;;;4918553;29;20436;-70
2021/09/07 02:53:02;;;;;;;0.80;0.40;;;14.40;99.90;;;;;;4935028;29;20972;-69
2021/09/07 02:55:31;;;;;;;0.80;0.40;;;14.30;99.90;;;;;;4917743;29;20448;-69
2021/09/07 02:57:59;;;;;;;0.80;0.40;;;14.30;99.90;;;;;;4935042;29;20464;-70
2021/09/07 03:00:28;;;;;;;0.80;0.40;;;14.20;99.90;;;;;;4918133;29;20540;-69
2021/09/07 03:02:58;;;;;;;0.80;0.40;;;14.20;99.90;;;;;;4935274;29;20883;-69
2021/09/07 03:05:28;;;;;;;0.80;0.40;;;14.20;99.90;;;;;;4918302;29;20955;-70
2021/09/07 03:07:56;;;;;;;0.80;0.40;;;14.10;99.90;;;;;;4934416;29;20481;-70
2021/09/07 03:10:25;;;;;;;0.80;0.40;;;14.10;99.90;;;;;;4917677;29;20423;-70
2021/09/07 03:12:55;;;;;;;0.80;0.40;;;14.10;99.90;;;;;;4917405;29;20443;-70
2021/09/07 03:15:25;;;;;;;0.80;0.40;;;14.10;99.90;;;;;;4917698;29;20452;-70
2021/09/07 03:17:53;;;;;;;0.80;0.40;;;14.10;99.90;;;;;;4934690;29;20433;-70
2021/09/07 03:20:22;;;;;;;0.80;0.40;;;14.10;99.90;;;;;;4934989;29;20796;-71
2021/09/07 03:22:52;;;;;;;0.80;0.40;;;14.10;99.90;;;;;;4917342;29;20532;-70
2021/09/07 03:25:21;;;;;;;0.80;0.40;;;14.10;99.90;;;;;;4918043;29;20455;-70
2021/09/07 03:27:51;;;;;;;0.80;0.40;;;14.10;99.90;;;;;;4917367;29;20467;-70
2021/09/07 03:30:22;;;;;;;0.80;0.50;;;14.10;99.90;;;;;;4918023;29;20819;-70
2021/09/07 03:32:52;;;;;;;0.80;0.40;;;14.00;99.90;;;;;;4917262;29;21029;-70
2021/09/07 03:35:21;;;;;;;0.80;0.40;;;14.00;99.90;;;;;;4917916;29;20423;-70
2021/09/07 03:37:52;;;;;;;0.80;0.40;;;13.90;99.90;;;;;;4917625;29;20465;-70
2021/09/07 03:40:21;;;;;;;0.80;0.40;;;13.80;99.90;;;;;;4934568;29;20449;-70
2021/09/07 03:42:50;;;;;;;0.80;0.40;;;13.80;99.90;;;;;;4917313;29;20528;-70
2021/09/07 03:45:20;;;;;;;0.83;0.47;;;13.70;99.90;;;;;;4916829;29;20425;-70
2021/09/07 03:47:50;;;;;;;0.80;0.40;;;13.70;99.90;;;;;;4916995;29;20484;-70
2021/09/07 03:50:19;;;;;;;0.80;0.40;;;13.60;99.90;;;;;;4917388;29;20437;-70
2021/09/07 03:52:48;;;;;;;0.80;0.40;;;13.60;99.90;;;;;;4934113;29;20475;-70
2021/09/07 03:55:20;;;;;;;0.80;0.40;;;13.70;99.90;;;;;;4917822;29;20448;-69
2021/09/07 03:57:48;;;;;;;0.80;0.40;;;13.70;99.90;;;;;;4916894;29;20423;-69
2021/09/07 04:00:19;;;;;;;0.80;0.40;;;13.60;99.90;;;;;;4916867;29;20453;-70
2021/09/07 04:02:48;;;;;;;0.80;0.40;;;13.50;99.90;;;;;;4917381;29;20885;-70
2021/09/07 04:05:17;;;;;;;0.80;0.40;;;13.50;99.90;;;;;;4917125;29;20412;-70
2021/09/07 04:07:46;;;;;;;0.80;0.40;;;13.40;99.90;;;;;;4917001;29;20438;-70
2021/09/07 04:10:16;;;;;;;0.80;0.40;;;13.30;99.90;;;;;;4917278;29;20479;-69
2021/09/07 04:12:49;;;;;;;0.80;0.40;;;13.30;99.90;;;;;;4934096;29;20958;-69
2021/09/07 04:15:17;;;;;;;0.80;0.40;;;13.30;99.90;;;;;;4916589;29;20462;-69
2021/09/07 04:17:46;;;;;;;0.80;0.40;;;13.30;99.90;;;;;;4916846;29;20462;-69
2021/09/07 04:20:21;;;;;;;0.80;0.40;;;13.20;99.90;;;;;;4916741;29;20440;-69
2021/09/07 04:22:50;;;;;;;0.80;0.40;;;13.20;99.90;;;;;;4916426;29;21061;-70
2021/09/07 04:25:20;;;;;;;0.80;0.40;;;13.10;99.90;;;;;;4916610;29;20426;-70
2021/09/07 04:27:51;;;;;;;0.80;0.40;;;13.10;99.90;;;;;;4916971;29;20507;-69
2021/09/07 04:30:20;;;;;;;0.80;0.40;;;13.10;99.90;;;;;;4917087;29;20497;-69
2021/09/07 04:32:48;;;;;;;0.80;0.40;;;13.10;99.90;;;;;;4916756;29;20479;-69
2021/09/07 04:35:17;;;;;;;0.80;0.40;;;13.10;99.90;;;;;;4916478;29;20408;-69
2021/09/07 04:37:45;;;;;;;0.80;0.40;;;13.10;99.90;;;;;;4912888;29;20449;-70
2021/09/07 04:40:16;;;;;;;0.80;0.40;;;13.10;99.90;;;;;;4933748;29;20405;-70
2021/09/07 04:42:44;;;;;;;0.80;0.40;;;13.10;99.90;;;;;;4933677;29;20942;-69
2021/09/07 04:45:14;;;;;;;0.80;0.40;;;13.20;99.90;;;;;;4916902;29;20419;-70
2021/09/07 04:47:44;;;;;;;0.80;0.40;;;13.30;99.90;;;;;;4931096;29;20809;-69
2021/09/07 04:50:13;;;;;;;0.80;0.40;;;13.50;99.90;;;;;;4916440;29;20852;-69
2021/09/07 04:52:41;;;;;;;0.80;0.40;;;13.70;99.90;;;;;;4916571;29;20559;-70
2021/09/07 04:55:10;;;;;;;0.80;0.40;;;13.90;99.90;;;;;;4915852;29;20499;-69
2021/09/07 04:57:39;;;;;;;0.80;0.40;;;14.10;99.90;;;;;;4933795;29;20404;-69
2021/09/07 05:00:09;;;;;;;0.80;0.40;;;14.30;99.90;;;;;;4933288;29;20935;-70
2021/09/07 05:02:38;;;;;;;0.80;0.40;;;14.50;99.90;;;;;;4916208;29;20775;-70
2021/09/07 05:05:08;;;;;;;0.80;0.40;;;15.00;99.90;;;;;;4916462;29;20441;-70
2021/09/07 05:07:37;;;;;;;0.80;0.50;;;15.50;99.90;;;;;;4916465;29;20427;-69
2021/09/07 05:10:07;;;;;;;0.80;0.40;;;15.90;99.90;;;;;;4933361;29;20454;-69
2021/09/07 05:12:35;;;;;;;0.80;0.40;;;16.00;99.90;;;;;;4935645;29;20484;-69
2021/09/07 05:15:05;;;;;;;0.80;0.40;;;16.10;99.90;;;;;;4919826;29;20419;-70
2021/09/07 05:17:34;;;;;;;0.80;0.40;;;15.90;99.90;;;;;;4920416;29;20451;-69
2021/09/07 05:20:05;;;;;;;0.80;0.40;;;15.60;99.90;;;;;;4937670;29;20503;-69
2021/09/07 05:22:33;;;;;;;0.80;0.40;;;15.50;99.90;;;;;;4920588;29;20456;-69
2021/09/07 05:25:05;;;;;;;0.80;0.40;;;15.40;99.90;;;;;;4919940;29;20869;-69
2021/09/07 05:27:35;;;;;;;0.80;0.40;;;15.40;99.90;;;;;;4920079;29;20950;-68
2021/09/07 05:30:04;;;;;;;0.80;0.40;;;15.50;99.90;;;;;;4919683;29;20518;-70
2021/09/07 05:32:32;;;;;;;0.80;0.40;;;15.60;99.90;;;;;;4919788;29;20995;-67
2021/09/07 05:35:02;;;;;;;0.80;0.40;;;15.70;99.90;;;;;;4919576;29;20447;-69
2021/09/07 05:37:37;;;;;;;0.80;0.40;;;15.80;99.90;;;;;;4912628;29;20480;-69
2021/09/07 05:40:08;;;;;;;0.80;0.50;;;15.90;99.90;;;;;;4934521;29;20503;-69
2021/09/07 05:42:41;;;;;;;0.80;0.40;;;15.90;99.90;;;;;;4905673;29;20432;-69
2021/09/07 05:45:11;;;;;;;0.80;0.40;;;15.90;99.90;;;;;;4913761;29;20789;-69
2021/09/07 05:47:40;;;;;;;0.80;0.40;;;16.00;28.20;;;;;;4932676;29;20968;-69
2021/09/07 05:50:14;;;;;;;0.80;0.40;;;16.00;1.00;;;;;;4901740;29;20433;-69
2021/09/07 05:52:43;;;;;;;0.80;0.40;;;16.10;65.20;;;;;;4881384;29;21267;-69
2021/09/07 05:55:12;;;;;;;0.80;0.40;;;16.20;1.00;;;;;;4881190;29;20547;-68
2021/09/07 05:57:41;;;;;;;0.80;0.40;;;16.20;99.90;;;;;;4881696;29;20489;-68
2021/09/07 06:00:10;;;;;;;0.80;0.40;;;16.20;99.90;;;;;;4903259;29;20430;-69
2021/09/07 06:02:39;;;;;;;0.80;0.40;;;16.10;99.90;;;;;;4924081;29;20424;-69
2021/09/07 06:05:11;;;;;;;0.80;0.40;;;16.20;99.90;;;;;;4904986;29;20416;-68
2021/09/07 06:07:39;;;;;;;0.80;0.40;;;16.30;99.90;;;;;;4917376;29;20441;-69
2021/09/07 06:10:09;;;;;;;0.80;0.40;;;16.50;1.00;;;;;;4931827;29;21052;-69
2021/09/07 06:12:39;;;;;;;0.80;0.40;;;16.50;1.00;;;;;;4932059;29;20788;-69
2021/09/07 06:15:08;;;;;;;0.80;0.40;;;16.80;1.00;;;;;;4899862;29;20455;-70
2021/09/07 06:17:36;;;;;;;0.80;0.40;;;17.00;1.00;;;;;;4902384;29;20449;-71
2021/09/07 06:20:06;;;;;;;0.80;0.40;;;17.10;99.90;;;;;;4898483;29;20480;-67
2021/09/07 06:22:37;;;;;;;0.90;0.40;;;17.30;99.90;;;;;;4915079;29;20972;-66
2021/09/07 06:25:07;;;;;;;0.80;0.40;;;17.50;99.90;;;;;;4914340;29;20420;-69
2021/09/07 06:27:35;;;;;;;0.80;0.40;;;17.60;99.90;;;;;;4916710;29;20434;-67
2021/09/07 06:30:05;;;;;;;0.80;0.40;;;17.60;99.90;;;;;;4914664;29;20470;-68
2021/09/07 06:32:34;;;;;;;0.90;0.40;;;17.70;99.90;;;;;;4911431;29;20569;-69
2021/09/07 06:35:02;;;;;;;0.90;0.40;;;17.90;99.90;;;;;;4916042;29;20448;-68
2021/09/07 06:37:30;;;;;;;0.90;0.40;;;17.80;99.90;;;;;;4906631;29;20498;-68
2021/09/07 06:40:01;;;;;;;0.90;0.40;;;17.80;99.90;;;;;;4914990;29;20424;-68
2021/09/07 06:42:29;;;;;;;0.90;0.40;;;17.60;99.90;;;;;;4914830;29;20555;-67
2021/09/07 06:44:58;;;;;;;0.80;0.40;;;17.50;99.90;;;;;;4915018;29;20467;-67
2021/09/07 06:47:26;;;;;;;0.90;0.40;;;17.40;99.90;;;;;;4916446;29;20796;-67
2021/09/07 06:49:55;;;;;;;0.90;0.40;;;17.30;99.90;;;;;;4909349;29;20477;-67
2021/09/07 06:52:23;;;;;;;0.90;0.40;;;17.40;99.90;;;;;;4916513;29;20449;-68
2021/09/07 06:54:52;;;;;;;0.90;0.40;;;17.40;99.90;;;;;;4899501;29;20459;-68
2021/09/07 06:57:21;;;;;;;0.90;0.50;;;17.70;99.90;;;;;;4899175;29;20447;-68
2021/09/07 06:59:50;;;;;;;0.90;0.40;;;17.80;99.90;;;;;;4898919;29;20892;-67
2021/09/07 07:02:18;;;;;;;0.90;0.50;;;18.00;99.90;;;;;;4915747;29;20500;-67
2021/09/07 07:04:47;;;;;;;0.90;0.40;;;18.10;99.90;;;;;;4915811;29;20404;-68
2021/09/07 07:07:15;;;;;;;0.90;0.40;;;18.10;99.90;;;;;;4899337;29;20445;-68
2021/09/07 07:09:44;;;;;;;0.90;0.40;;;18.10;99.90;;;;;;4900764;29;21000;-67
2021/09/07 07:12:12;;;;;;;0.90;0.40;;;18.10;99.90;;;;;;4922283;29;20432;-67
2021/09/07 07:14:42;;;;;;;0.90;0.40;;;18.20;99.90;;;;;;4928775;29;20480;-67
2021/09/07 07:17:11;;;;;;;0.90;0.40;;;18.30;99.90;;;;;;4901243;29;20416;-72
2021/09/07 07:19:39;;;;;;;0.90;0.40;;;18.30;99.90;;;;;;4898890;29;20515;-70
2021/09/07 07:22:07;;;;;;;0.90;0.40;;;18.30;99.90;;;;;;4898904;29;20541;-69
2021/09/07 07:24:36;;;;;;;0.90;0.40;;;18.50;99.90;;;;;;4899233;29;20426;-70
2021/09/07 07:27:05;;;;;;;0.90;0.40;;;18.50;99.90;;;;;;4916182;29;20428;-71
2021/09/07 07:29:33;;;;;;;0.90;0.40;;;18.50;99.90;;;;;;4915838;29;20434;-71
2021/09/07 07:32:04;;;;;;;0.90;0.40;;;18.60;99.90;;;;;;4915806;29;20420;-71
2021/09/07 07:34:32;;;;;;;0.90;0.40;;;18.70;99.90;;;;;;4915724;29;20747;-70
2021/09/07 07:37:05;;;;;;;0.90;0.40;;;18.70;99.90;;;;;;4916050;29;20491;-71
2021/09/07 07:39:35;;;;;;;0.90;0.40;;;18.70;99.90;;;;;;4915838;29;20503;-70
2021/09/07 07:42:04;;;;;;;0.90;0.40;;;18.90;99.90;;;;;;4898863;29;20493;-70
2021/09/07 07:44:32;;;;;;;0.90;0.40;;;18.80;99.90;;;;;;4915397;29;20441;-70
2021/09/07 07:47:01;;;;;;;0.90;0.40;;;18.70;99.90;;;;;;4898634;29;20733;-71
2021/09/07 07:49:31;;;;;;;0.90;0.40;;;18.70;99.90;;;;;;4915621;29;20441;-70
2021/09/07 07:51:59;;;;;;;0.90;0.40;;;18.70;99.90;;;;;;4898801;29;20993;-72
2021/09/07 07:54:28;;;;;;;0.90;0.40;;;18.70;99.90;;;;;;4915411;29;21024;-70
2021/09/07 07:56:56;;;;;;;0.90;0.40;;;18.90;99.90;;;;;;4899132;29;20863;-70
2021/09/07 07:59:24;;;;;;;0.90;0.40;;;19.00;99.90;;;;;;4923640;29;20451;-70
2021/09/07 08:01:53;;;;;;;0.90;0.40;;;19.10;99.90;;;;;;4915593;29;20857;-71
2021/09/07 08:04:22;;;;;;;0.90;0.40;;;19.10;99.90;;;;;;4916712;29;20419;-72
2021/09/07 08:06:52;;;;;;;0.90;0.40;;;19.20;99.90;;;;;;4918434;29;20818;-70
2021/09/07 08:09:21;;;;;;;0.90;0.40;;;19.30;99.90;;;;;;4898826;29;20738;-70
2021/09/07 08:11:49;;;;;;;0.90;0.40;;;19.60;99.90;;;;;;4915616;29;20500;-69
2021/09/07 08:14:18;;;;;;;1.00;0.60;;;19.60;99.90;;;;;;4929305;29;20953;-71
2021/09/07 08:16:46;;;;;;;0.90;0.40;;;19.70;99.90;;;;;;4898518;29;20416;-70
2021/09/07 08:19:14;;;;;;;0.90;0.40;;;19.70;99.90;;;;;;4898762;29;20450;-71
2021/09/07 08:21:43;;;;;;;0.90;0.50;;;19.80;99.90;;;;;;4898210;29;20538;-70
2021/09/07 08:24:13;;;;;;;0.90;0.40;;;19.80;99.90;;;;;;4899564;29;20448;-71
2021/09/07 08:26:41;;;;;;;0.90;0.40;;;19.80;99.90;;;;;;4915790;29;20437;-70
2021/09/07 08:29:10;;;;;;;0.90;0.40;;;19.80;99.90;;;;;;4899319;29;20872;-70
2021/09/07 08:31:38;;;;;;;0.90;0.40;;;19.80;99.90;;;;;;4915208;29;20452;-72
2021/09/07 08:34:07;;;;;;;0.90;0.40;;;19.90;99.90;;;;;;4901627;29;20424;-71
2021/09/07 08:36:35;;;;;;;0.90;0.50;;;19.80;99.90;;;;;;4898287;29;20452;-71
2021/09/07 08:39:05;;;;;;;0.90;0.40;;;19.90;1.00;;;;;;4916493;29;20499;-71
2021/09/07 08:41:34;;;;;;;0.90;0.40;;;19.80;99.90;;;;;;4898319;29;21162;-71
2021/09/07 08:44:03;;;;;;;0.90;0.40;;;19.80;99.90;;;;;;4898196;29;20552;-70
2021/09/07 08:46:32;;;;;;;0.90;0.40;;;19.80;99.90;;;;;;4898117;29;20442;-71
2021/09/07 08:49:14;;;;;;;0.90;0.40;;;19.90;99.90;;;;;;4902237;29;20484;-71
2021/09/07 08:51:42;;;;;;;0.90;0.40;;;20.20;99.90;;;;;;4901837;29;20452;-70
2021/09/07 08:54:11;;;;;;;0.90;0.40;;;20.40;99.90;;;;;;4919133;29;20432;-71
2021/09/07 08:56:42;;;;;;;0.90;0.40;;;20.30;99.90;;;;;;4901580;29;20428;-71
2021/09/07 08:59:11;;;;;;;0.90;0.40;;;20.20;99.90;;;;;;4901985;29;20439;-71
2021/09/07 09:01:42;;;;;;;0.90;0.40;;;20.20;99.90;;;;;;4901076;29;20460;-72
2021/09/07 09:04:27;;;;;;;0.90;0.40;;;20.30;99.90;;;;;;4901551;29;20829;-71
2021/09/07 09:06:56;;;;;;;0.90;0.40;;;20.40;99.90;;;;;;4901830;29;20970;-72
2021/09/07 09:09:36;;;;;;;0.90;0.40;;;20.50;1.00;;;;;;4907712;29;20857;-70
2021/09/07 09:12:08;;;;;;;0.90;0.40;;;20.60;1.00;;;;;;4917730;29;21047;-70
2021/09/07 09:14:39;;;;;;;0.90;0.40;;;20.60;1.00;;;;;;4927729;29;20952;-71
2021/09/07 09:17:25;;;;;;;0.90;0.40;;;20.50;1.00;;;;;;4918237;29;20851;-72
2021/09/07 09:19:56;;;;;;;0.90;0.40;;;20.60;1.00;;;;;;4916262;29;20488;-72
2021/09/07 09:22:43;;;;;;;0.90;0.40;;;20.60;99.90;;;;;;4905042;29;20774;-71
2021/09/07 09:25:32;;;;;;;0.90;0.40;;;20.60;99.90;;;;;;4902064;29;20750;-71
2021/09/07 09:28:11;;;;;;;0.90;0.40;;;20.80;1.00;;;;;;4917309;29;20574;-71
2021/09/07 09:30:42;;;;;;;0.90;0.40;;;20.70;1.00;;;;;;4906260;29;20790;-72
2021/09/07 09:33:13;;;;;;;0.90;0.40;;;20.60;99.90;;;;;;4926876;29;20487;-71
2021/09/07 09:35:54;;;;;;;0.90;0.40;;;20.40;99.90;;;;;;4920165;29;20465;-71
2021/09/07 09:38:24;;;;;;;0.90;0.40;;;20.50;99.90;;;;;;4920331;29;20454;-72
2021/09/07 09:41:01;;;;;;;0.90;0.40;;;20.80;99.90;;;;;;4920221;29;20764;-72
2021/09/07 09:43:37;;;;;;;0.90;0.40;;;21.20;99.90;;;;;;4920408;29;20442;-72
2021/09/07 09:46:23;;;;;;;0.90;0.40;;;21.20;1.00;;;;;;4919683;29;20470;-71
2021/09/07 09:48:54;;;;;;;0.90;0.40;;;21.20;99.90;;;;;;4920084;29;20440;-71
2021/09/07 09:51:24;;;;;;;0.90;0.40;;;21.20;99.90;;;;;;4937266;29;20464;-72
2021/09/07 09:53:53;;;;;;;0.90;0.40;;;21.20;99.90;;;;;;4920279;29;20411;-70
2021/09/07 09:56:22;;;;;;;0.90;0.40;;;21.20;99.90;;;;;;4936534;29;20435;-71
2021/09/07 09:58:53;;;;;;;0.90;0.40;;;21.10;99.90;;;;;;4918566;29;20407;-71
2021/09/07 10:01:22;;;;;;;0.90;0.40;;;21.10;1.00;;;;;;4919606;29;20808;-70
2021/09/07 10:03:51;;;;;;;0.90;0.40;;;21.10;99.90;;;;;;4919319;29;20805;-71
2021/09/07 10:06:20;;;;;;;0.90;0.40;;;21.30;1.00;;;;;;4918934;29;20423;-71
2021/09/07 10:08:49;;;;;;;0.90;0.40;;;21.40;99.90;;;;;;4936109;29;20498;-71
2021/09/07 10:11:22;;;;;;;0.90;0.40;;;21.50;1.00;;;;;;4936240;29;20468;-71
2021/09/07 10:13:56;;;;;;;0.90;0.40;;;21.40;1.00;;;;;;4919259;29;20419;-71
2021/09/07 10:16:33;;;;;;;0.90;0.40;;;21.20;99.90;;;;;;4919740;29;20448;-71
2021/09/07 10:19:09;;;;;;;0.90;0.40;;;21.20;99.90;;;;;;4941655;29;20426;-72
2021/09/07 10:24:54;;;;;;;0.90;0.40;;;20.90;1.00;;;;;;4941950;29;20459;-71
2021/09/07 10:27:23;;;;;;;0.90;0.40;;;20.80;1.00;;;;;;4942126;29;20411;-70
2021/09/07 10:29:54;;;;;;;0.90;0.40;;;20.90;1.00;;;;;;4943699;29;20391;-70
2021/09/07 10:32:25;;;;;;;0.90;0.40;;;21.10;1.00;;;;;;4927383;29;20481;-71
2021/09/07 10:35:17;;;;;;;0.90;0.40;;;21.30;1.00;;;;;;4929632;29;20416;-70
2021/09/07 10:38:10;;;;;;;0.90;0.40;;;21.30;1.00;;;;;;4915836;29;20420;-70
2021/09/07 10:40:57;;;;;;;0.90;0.40;;;21.40;1.00;;;;;;4908581;29;20438;-70
2021/09/07 10:43:48;;;;;;;0.90;0.40;;;21.60;1.00;;;;;;4916985;29;20412;-70
2021/09/07 10:46:34;;;;;;;0.90;0.40;;;22.00;1.00;;;;;;4931821;29;20477;-70
2021/09/07 10:49:24;;;;;;;0.90;0.40;;;22.20;25.40;;;;;;4916960;29;20771;-70
2021/09/07 10:52:12;;;;;;;0.90;0.40;;;22.10;99.90;;;;;;4899285;29;20873;-72
2021/09/07 10:54:45;;;;;;;0.90;0.40;;;21.80;99.90;;;;;;4916637;29;20996;-72
2021/09/07 10:57:48;;;;;;;0.90;0.40;;;21.60;99.90;;;;;;4916519;29;20426;-72
2021/09/07 11:00:39;;;;;;;0.90;0.40;;;21.70;19.10;;;;;;4916989;29;20429;-71
2021/09/07 11:03:13;;;;;;;0.90;0.40;;;21.80;61.60;;;;;;4915153;29;20444;-71
2021/09/07 11:05:46;;;;;;;0.90;0.40;;;22.20;99.90;;;;;;4918725;29;20429;-72
2021/09/07 11:08:35;;;;;;;0.90;0.40;;;22.50;99.90;;;;;;4904996;29;20428;-72
2021/09/07 11:11:23;;;;;;;0.90;0.40;;;22.90;92.20;;;;;;4934634;29;20447;-73
2021/09/07 11:13:54;;;;;;;0.90;0.40;;;23.40;99.90;;;;;;4918247;29;20527;-73
2021/09/07 11:16:22;;;;;;;0.90;0.40;;;23.60;99.90;;;;;;4918534;29;20415;-72
2021/09/07 11:19:01;;;;;;;0.90;0.40;;;23.70;99.90;;;;;;4917830;29;20907;-71
2021/09/07 11:21:30;;;;;;;0.90;0.40;;;23.60;99.90;;;;;;4914268;29;20862;-71
2021/09/07 11:24:00;;;;;;;0.90;0.40;;;23.40;99.90;;;;;;4898345;29;20868;-72
2021/09/07 11:26:30;;;;;;;0.90;0.40;;;23.40;99.90;;;;;;4900136;29;20412;-73
2021/09/07 11:28:59;;;;;;;0.90;0.40;;;23.20;99.90;;;;;;4918629;29;20434;-73
2021/09/07 11:31:27;;;;;;;0.90;0.40;;;22.80;99.90;;;;;;4917147;29;20412;-75
2021/09/07 11:33:57;;;;;;;0.90;0.40;;;22.80;99.90;;;;;;4909368;29;21118;-75
2021/09/07 11:36:25;;;;;;;0.90;0.40;;;23.20;99.90;;;;;;4913952;29;20531;-73
2021/09/07 11:38:54;;;;;;;0.90;0.40;;;23.10;99.90;;;;;;4899442;29;20422;-71
2021/09/07 11:41:23;;;;;;;0.90;0.40;;;23.20;99.90;;;;;;4913852;29;20854;-74
2021/09/07 11:43:55;;;;;;;0.90;0.40;;;23.20;99.90;;;;;;4908521;29;20431;-70
2021/09/07 11:46:27;;;;;;;0.90;0.40;;;23.00;99.90;;;;;;4916296;29;20468;-74
2021/09/07 11:49:06;;;;;;;0.90;0.40;;;22.90;99.90;;;;;;4916854;29;20418;-74
2021/09/07 11:51:36;;;;;;;0.90;0.40;;;22.80;99.90;;;;;;4910412;29;21046;-71
2021/09/07 11:54:07;;;;;;;0.90;0.40;;;22.90;99.90;;;;;;4916521;29;20473;-73
2021/09/07 11:56:37;;;;;;;0.90;0.40;;;22.90;99.90;;;;;;4910365;29;20424;-75
2021/09/07 11:59:10;;;;;;;0.90;0.40;;;22.90;99.90;;;;;;4906957;29;20540;-74
2021/09/07 12:01:40;;;;;;;0.90;0.40;;;22.80;99.90;;;;;;4917374;29;20431;-73
2021/09/07 12:04:13;;;;;;;0.90;0.50;;;22.80;99.90;;;;;;4917734;29;20474;-73
2021/09/07 12:06:45;;;;;;;0.90;0.40;;;22.70;99.90;;;;;;4907276;29;20423;-74
2021/09/07 12:09:16;;;;;;;0.90;0.40;;;22.70;99.90;;;;;;4909852;29;20424;-75
2021/09/07 12:11:48;;;;;;;0.90;0.40;;;22.50;99.90;;;;;;4907264;29;20789;-74
2021/09/07 12:14:20;;;;;;;0.90;0.40;;;22.50;32.50;;;;;;4908427;29;20503;-69
2021/09/07 12:16:54;;;;;;;0.90;0.40;;;22.40;1.00;;;;;;4907974;29;20503;-75
2021/09/07 12:19:31;;;;;;;0.90;0.40;;;22.30;33.80;;;;;;4917168;29;20436;-73
2021/09/07 12:22:09;;;;;;;0.90;0.40;;;22.20;83.60;;;;;;4913071;29;20491;-75
2021/09/07 12:24:38;;;;;;;0.90;0.40;;;22.20;99.90;;;;;;4915209;29;20437;-73
2021/09/07 12:27:19;;;;;;;0.90;0.40;;;22.40;99.90;;;;;;4916225;29;20408;-72
2021/09/07 12:30:07;;;;;;;0.90;0.40;;;22.40;89.20;;;;;;4916659;29;20408;-74
2021/09/07 12:32:55;;;;;;;0.90;0.40;;;22.30;99.90;;;;;;4916013;29;21214;-73
2021/09/07 12:35:35;;;;;;;0.90;0.40;;;22.00;99.90;;;;;;4898995;29;20465;-73
2021/09/07 12:38:05;;;;;;;0.90;0.40;;;22.10;99.90;;;;;;4902745;29;20428;-72
2021/09/07 12:40:36;;;;;;;0.90;0.40;;;22.30;99.90;;;;;;4906672;29;20850;-74
2021/09/07 12:43:16;;;;;;;0.90;0.40;;;22.40;99.90;;;;;;4909742;29;20479;-75
2021/09/07 12:45:45;;;;;;;0.90;0.40;;;22.40;99.90;;;;;;4916181;29;20529;-74
2021/09/07 12:48:15;;;;;;;0.90;0.40;;;22.30;99.90;;;;;;4904537;29;20545;-74
2021/09/07 12:50:46;;;;;;;0.90;0.40;;;22.40;90.90;;;;;;4916150;29;20786;-74
2021/09/07 12:53:20;;;;;;;0.90;0.40;;;22.40;51.90;;;;;;4910987;29;20444;-76
2021/09/07 12:56:06;;;;;;;0.90;0.50;;;22.50;23.20;;;;;;4916027;29;20561;-74
2021/09/07 12:58:36;;;;;;;0.90;0.40;;;22.70;90.40;;;;;;4907158;29;20445;-73
2021/09/07 13:01:06;;;;;;;0.90;0.40;;;22.80;99.90;;;;;;4903029;29;20420;-74
2021/09/07 13:03:38;;;;;;;0.90;0.40;;;22.90;99.90;;;;;;4908100;29;20447;-74
2021/09/07 13:06:10;;;;;;;0.90;0.40;;;23.00;96.30;;;;;;4922165;29;20419;-74
2021/09/07 13:08:39;;;;;;;0.90;0.40;;;23.00;99.90;;;;;;4910326;29;20448;-74
2021/09/07 13:11:09;;;;;;;0.90;0.40;;;23.20;99.90;;;;;;4924316;29;20430;-74